Wetterstation Oberdrees
Wetterdaten: aktuell Samstag, 23.09.2017 14:30
Datum Zeit Temp. A. Feuchte A. Luftdruck Regen Wind Richtung Richtung Taupunkt Windchill Windben
23.09.2017 14:30 19,1 C 65 % 1011 hPa 0,0 l/m 0,0 km/h (0 Bft) S 180 12,4 C 19,1 C 2,2 km/h (1 Bft)
23.09.2017 14:20 19,9 C 65 % 1011 hPa 0,0 l/m 1,1 km/h (1 Bft) S-SO 157 13,1 C 19,9 C 2,2 km/h (1 Bft)
23.09.2017 14:10 19,5 C 66 % 1011 hPa 0,0 l/m 0,7 km/h (0 Bft) N 360 13,0 C 19,5 C 2,2 km/h (1 Bft)
23.09.2017 14:00 19,1 C 65 % 1011 hPa 0,0 l/m 0,7 km/h (0 Bft) SW 225 12,4 C 19,1 C 2,2 km/h (1 Bft)
23.09.2017 13:50 19,9 C 65 % 1011 hPa 0,0 l/m 3,2 km/h (1 Bft) N 360 13,1 C 19,9 C 4,3 km/h (1 Bft)
23.09.2017 13:40 20,0 C 65 % 1012 hPa 0,0 l/m 2,5 km/h (1 Bft) NO 45 13,2 C 20,0 C 4,3 km/h (1 Bft)
23.09.2017 13:30 19,4 C 67 % 1012 hPa 0,0 l/m 2,9 km/h (1 Bft) W-NW 292 13,1 C 19,4 C 4,3 km/h (1 Bft)
23.09.2017 13:20 19,2 C 67 % 1011 hPa 0,0 l/m 2,2 km/h (1 Bft) N 360 12,9 C 19,2 C 4,3 km/h (1 Bft)
23.09.2017 13:10 19,0 C 68 % 1012 hPa 0,0 l/m 1,1 km/h (1 Bft) NW 315 13,0 C 19,0 C 2,2 km/h (1 Bft)
23.09.2017 13:00 19,0 C 68 % 1012 hPa 0,0 l/m 1,4 km/h (1 Bft) N-NW 337 13,0 C 19,0 C 4,3 km/h (1 Bft)
23.09.2017 12:50 19,3 C 69 % 1012 hPa 0,0 l/m 0,7 km/h (0 Bft) W-SW 247 13,5 C 19,3 C 2,2 km/h (1 Bft)
23.09.2017 12:40 18,8 C 72 % 1012 hPa 0,0 l/m 2,5 km/h (1 Bft) N-NW 337 13,6 C 18,8 C 4,3 km/h (1 Bft)
23.09.2017 12:30 18,1 C 76 % 1012 hPa 0,0 l/m 2,9 km/h (1 Bft) N 360 13,8 C 18,1 C 6,5 km/h (2 Bft)
23.09.2017 12:20 17,1 C 75 % 1012 hPa 0,0 l/m 1,8 km/h (1 Bft) W-NW 292 12,6 C 17,1 C 4,3 km/h (1 Bft)
23.09.2017 12:10 17,2 C 76 % 1012 hPa 0,0 l/m 2,2 km/h (1 Bft) W 270 12,9 C 17,2 C 4,3 km/h (1 Bft)
23.09.2017 12:00 17,2 C 76 % 1012 hPa 0,0 l/m 0,7 km/h (0 Bft) N-NO 22 12,9 C 17,2 C 2,2 km/h (1 Bft)
23.09.2017 11:50 17,5 C 79 % 1012 hPa 0,0 l/m 1,8 km/h (1 Bft) N 360 13,8 C 17,5 C 2,2 km/h (1 Bft)
23.09.2017 11:40 15,5 C 82 % 1012 hPa 0,0 l/m 1,4 km/h (1 Bft) W 270 12,4 C 15,5 C 2,2 km/h (1 Bft)
23.09.2017 11:30 14,9 C 82 % 1012 hPa 0,0 l/m 2,5 km/h (1 Bft) W-SW 247 11,9 C 14,9 C 4,3 km/h (1 Bft)
23.09.2017 11:20 14,6 C 82 % 1012 hPa 0,0 l/m 2,9 km/h (1 Bft) NW 315 11,6 C 14,6 C 6,5 km/h (2 Bft)
23.09.2017 11:10 14,6 C 82 % 1012 hPa 0,0 l/m 1,4 km/h (1 Bft) N 360 11,6 C 14,6 C 2,2 km/h (1 Bft)
23.09.2017 11:00 14,5 C 82 % 1012 hPa 0,0 l/m 4,0 km/h (1 Bft) N 360 11,5 C 14,5 C 6,5 km/h (2 Bft)
23.09.2017 10:50 14,6 C 82 % 1012 hPa 0,0 l/m 2,5 km/h (1 Bft) N-NW 337 11,6 C 14,6 C 4,3 km/h (1 Bft)
23.09.2017 10:40 14,6 C 82 % 1012 hPa 0,0 l/m 0,7 km/h (0 Bft) W-SW 247 11,6 C 14,6 C 2,2 km/h (1 Bft)
23.09.2017 10:30 14,7 C 83 % 1012 hPa 0,0 l/m 0,7 km/h (0 Bft) N 360 11,8 C 14,7 C 2,2 km/h (1 Bft)
23.09.2017 10:20 14,6 C 83 % 1012 hPa 0,0 l/m 1,8 km/h (1 Bft) N-NO 22 11,7 C 14,6 C 2,2 km/h (1 Bft)
23.09.2017 10:10 14,4 C 83 % 1012 hPa 0,0 l/m 1,4 km/h (1 Bft) NO 45 11,5 C 14,4 C 2,2 km/h (1 Bft)
23.09.2017 10:00 14,5 C 83 % 1012 hPa 0,0 l/m 2,9 km/h (1 Bft) N-NW 337 11,6 C 14,5 C 4,3 km/h (1 Bft)
23.09.2017 09:50 14,7 C 83 % 1012 hPa 0,0 l/m 1,1 km/h (1 Bft) N 360 11,8 C 14,7 C 2,2 km/h (1 Bft)
23.09.2017 09:40 14,8 C 83 % 1012 hPa 0,0 l/m 3,2 km/h (1 Bft) N-NW 337 11,9 C 14,8 C 6,5 km/h (2 Bft)
23.09.2017 09:30 14,8 C 83 % 1012 hPa 0,0 l/m 1,8 km/h (1 Bft) W 270 11,9 C 14,8 C 2,2 km/h (1 Bft)
23.09.2017 09:20 15,2 C 83 % 1012 hPa 0,0 l/m 1,1 km/h (1 Bft) S-SW 202 12,3 C 15,2 C 2,2 km/h (1 Bft)
23.09.2017 09:10 15,6 C 85 % 1012 hPa 0,0 l/m 0,7 km/h (0 Bft) SW 225 13,1 C 15,6 C 2,2 km/h (1 Bft)
23.09.2017 09:00 14,8 C 88 % 1012 hPa 0,0 l/m 3,6 km/h (1 Bft) N-NW 337 12,8 C 14,8 C 6,5 km/h (2 Bft)
23.09.2017 08:50 13,2 C 88 % 1012 hPa 0,0 l/m 2,2 km/h (1 Bft) W-SW 247 11,3 C 13,2 C 4,3 km/h (1 Bft)
23.09.2017 08:40 12,9 C 87 % 1012 hPa 0,0 l/m 1,4 km/h (1 Bft) W-NW 292 10,8 C 12,9 C 4,3 km/h (1 Bft)
23.09.2017 08:30 12,6 C 87 % 1012 hPa 0,0 l/m 1,8 km/h (1 Bft) W-SW 247 10,5 C 12,6 C 2,2 km/h (1 Bft)
23.09.2017 08:20 12,3 C 86 % 1012 hPa 0,0 l/m 1,4 km/h (1 Bft) W-SW 247 10,0 C 12,3 C 4,3 km/h (1 Bft)
23.09.2017 08:10 12,2 C 86 % 1012 hPa 0,0 l/m 1,8 km/h (1 Bft) W-SW 247 9,9 C 12,2 C 4,3 km/h (1 Bft)
23.09.2017 08:00 12,1 C 86 % 1011 hPa 0,0 l/m 0,0 km/h (0 Bft) W-SW 247 9,8 C 12,1 C 0,0 km/h (0 Bft)
23.09.2017 07:50 12,1 C 86 % 1011 hPa 0,0 l/m 0,0 km/h (0 Bft) SW 225 9,8 C 12,1 C 0,0 km/h (0 Bft)
23.09.2017 07:40 12,2 C 85 % 1011 hPa 0,0 l/m 0,0 km/h (0 Bft) SW 225 9,8 C 12,2 C 0,0 km/h (0 Bft)
23.09.2017 07:30 12,3 C 85 % 1011 hPa 0,0 l/m 0,0 km/h (0 Bft) S-SW 202 9,9 C 12,3 C 0,0 km/h (0 Bft)
23.09.2017 07:20 12,5 C 85 % 1011 hPa 0,0 l/m 0,4 km/h (0 Bft) S-SW 202 10,0 C 12,5 C 2,2 km/h (1 Bft)
23.09.2017 07:10 12,6 C 85 % 1011 hPa 0,0 l/m 0,0 km/h (0 Bft) SW 225 10,1 C 12,6 C 2,2 km/h (1 Bft)
23.09.2017 07:00 12,8 C 85 % 1011 hPa 0,0 l/m 0,0 km/h (0 Bft) N-NW 337 10,3 C 12,8 C 0,0 km/h (0 Bft)
23.09.2017 06:50 12,9 C 85 % 1011 hPa 0,0 l/m 0,0 km/h (0 Bft) W-NW 292 10,4 C 12,9 C 0,0 km/h (0 Bft)
23.09.2017 06:40 13,0 C 85 % 1011 hPa 0,0 l/m 0,0 km/h (0 Bft) W-NW 292 10,5 C 13,0 C 0,0 km/h (0 Bft)
23.09.2017 06:30 13,0 C 85 % 1011 hPa 0,0 l/m 0,0 km/h (0 Bft) NW 315 10,5 C 13,0 C 0,0 km/h (0 Bft)
23.09.2017 06:20 13,2 C 85 % 1011 hPa 0,0 l/m 0,4 km/h (0 Bft) W-NW 292 10,7 C 13,2 C 2,2 km/h (1 Bft)
23.09.2017 06:10 13,4 C 85 % 1011 hPa 0,0 l/m 0,4 km/h (0 Bft) W-NW 292 10,9 C 13,4 C 2,2 km/h (1 Bft)
23.09.2017 06:00 13,6 C 85 % 1011 hPa 0,0 l/m 0,4 km/h (0 Bft) W 270 11,1 C 13,6 C 2,2 km/h (1 Bft)
23.09.2017 05:50 13,7 C 86 % 1011 hPa 0,0 l/m 0,4 km/h (0 Bft) W 270 11,4 C 13,7 C 2,2 km/h (1 Bft)
23.09.2017 05:40 13,8 C 85 % 1011 hPa 0,0 l/m 0,7 km/h (0 Bft) W-NW 292 11,3 C 13,8 C 2,2 km/h (1 Bft)
23.09.2017 05:30 13,9 C 85 % 1011 hPa 0,0 l/m 1,4 km/h (1 Bft) W 270 11,4 C 13,9 C 2,2 km/h (1 Bft)
23.09.2017 05:20 14,0 C 85 % 1011 hPa 0,0 l/m 1,8 km/h (1 Bft) W-SW 247 11,5 C 14,0 C 4,3 km/h (1 Bft)
23.09.2017 05:10 14,0 C 85 % 1011 hPa 0,0 l/m 0,7 km/h (0 Bft) W-NW 292 11,5 C 14,0 C 2,2 km/h (1 Bft)
23.09.2017 05:00 14,2 C 86 % 1011 hPa 0,0 l/m 0,7 km/h (0 Bft) SW 225 11,9 C 14,2 C 4,3 km/h (1 Bft)
23.09.2017 04:50 14,2 C 85 % 1011 hPa 0,0 l/m 0,4 km/h (0 Bft) NW 315 11,7 C 14,2 C 2,2 km/h (1 Bft)
23.09.2017 04:40 14,2 C 85 % 1011 hPa 0,0 l/m 0,0 km/h (0 Bft) SW 225 11,7 C 14,2 C 0,0 km/h (0 Bft)
23.09.2017 04:30 14,2 C 85 % 1011 hPa 0,0 l/m 1,1 km/h (1 Bft) W-NW 292 11,7 C 14,2 C 2,2 km/h (1 Bft)
23.09.2017 04:20 14,2 C 85 % 1011 hPa 0,0 l/m 0,0 km/h (0 Bft) W 270 11,7 C 14,2 C 2,2 km/h (1 Bft)
23.09.2017 04:10 14,2 C 85 % 1011 hPa 0,0 l/m 2,5 km/h (1 Bft) W 270 11,7 C 14,2 C 4,3 km/h (1 Bft)
23.09.2017 04:00 14,3 C 85 % 1011 hPa 0,0 l/m 0,7 km/h (0 Bft) W 270 11,8 C 14,3 C 2,2 km/h (1 Bft)
23.09.2017 03:50 14,3 C 85 % 1011 hPa 0,0 l/m 0,7 km/h (0 Bft) W-SW 247 11,8 C 14,3 C 2,2 km/h (1 Bft)
23.09.2017 03:40 14,3 C 85 % 1011 hPa 0,0 l/m 1,8 km/h (1 Bft) W 270 11,8 C 14,3 C 4,3 km/h (1 Bft)
23.09.2017 03:30 14,2 C 85 % 1011 hPa 0,0 l/m 1,8 km/h (1 Bft) W-SW 247 11,7 C 14,2 C 2,2 km/h (1 Bft)
23.09.2017 03:20 14,2 C 85 % 1011 hPa 0,0 l/m 1,8 km/h (1 Bft) W-SW 247 11,7 C 14,2 C 4,3 km/h (1 Bft)
23.09.2017 03:10 14,2 C 85 % 1011 hPa 0,0 l/m 0,0 km/h (0 Bft) W 270 11,7 C 14,2 C 0,0 km/h (0 Bft)
23.09.2017 03:00 14,2 C 85 % 1011 hPa 0,0 l/m 1,4 km/h (1 Bft) W 270 11,7 C 14,2 C 2,2 km/h (1 Bft)
23.09.2017 02:50 14,2 C 85 % 1011 hPa 0,0 l/m 1,8 km/h (1 Bft) S-SW 202 11,7 C 14,2 C 2,2 km/h (1 Bft)
23.09.2017 02:40 14,1 C 84 % 1011 hPa 0,0 l/m 2,9 km/h (1 Bft) W-NW 292 11,4 C 14,1 C 4,3 km/h (1 Bft)
23.09.2017 02:30 14,1 C 84 % 1011 hPa 0,0 l/m 3,2 km/h (1 Bft) W 270 11,4 C 14,1 C 4,3 km/h (1 Bft)
23.09.2017 02:20 14,1 C 83 % 1011 hPa 0,0 l/m 2,5 km/h (1 Bft) W 270 11,3 C 14,1 C 4,3 km/h (1 Bft)
23.09.2017 02:10 14,2 C 83 % 1011 hPa 0,0 l/m 0,7 km/h (0 Bft) W-SW 247 11,4 C 14,2 C 2,2 km/h (1 Bft)
23.09.2017 02:00 14,2 C 83 % 1011 hPa 0,0 l/m 0,7 km/h (0 Bft) W-SW 247 11,4 C 14,2 C 4,3 km/h (1 Bft)
23.09.2017 01:50 14,2 C 83 % 1011 hPa 0,0 l/m 1,8 km/h (1 Bft) W-SW 247 11,4 C 14,2 C 2,2 km/h (1 Bft)
23.09.2017 01:40 14,3 C 82 % 1011 hPa 0,0 l/m 0,0 km/h (0 Bft) S-SO 157 11,3 C 14,3 C 2,2 km/h (1 Bft)
23.09.2017 01:30 14,2 C 82 % 1011 hPa 0,0 l/m 0,0 km/h (0 Bft) SW 225 11,2 C 14,2 C 0,0 km/h (0 Bft)
23.09.2017 01:20 14,2 C 82 % 1011 hPa 0,0 l/m 2,9 km/h (1 Bft) W-SW 247 11,2 C 14,2 C 4,3 km/h (1 Bft)
23.09.2017 01:10 14,2 C 81 % 1011 hPa 0,0 l/m 2,5 km/h (1 Bft) W 270 11,0 C 14,2 C 4,3 km/h (1 Bft)
23.09.2017 01:00 14,2 C 81 % 1011 hPa 0,0 l/m 0,7 km/h (0 Bft) W-SW 247 11,0 C 14,2 C 2,2 km/h (1 Bft)
23.09.2017 00:50 14,4 C 81 % 1011 hPa 0,0 l/m 2,9 km/h (1 Bft) SW 225 11,2 C 14,4 C 4,3 km/h (1 Bft)
23.09.2017 00:40 14,4 C 81 % 1011 hPa 0,0 l/m 0,7 km/h (0 Bft) W 270 11,2 C 14,4 C 2,2 km/h (1 Bft)
23.09.2017 00:30 14,5 C 81 % 1011 hPa 0,0 l/m 0,0 km/h (0 Bft) W-SW 247 11,3 C 14,5 C 0,0 km/h (0 Bft)
23.09.2017 00:20 14,6 C 80 % 1011 hPa 0,0 l/m 0,7 km/h (0 Bft) SW 225 11,2 C 14,6 C 2,2 km/h (1 Bft)
23.09.2017 00:10 14,8 C 79 % 1011 hPa 0,0 l/m 0,0 km/h (0 Bft) S-SW 202 11,2 C 14,8 C 0,0 km/h (0 Bft)
23.09.2017 00:00 15,0 C 79 % 1011 hPa 0,0 l/m 0,4 km/h (0 Bft) SW 225 11,4 C 15,0 C 2,2 km/h (1 Bft)
22.09.2017 23:50 15,2 C 79 % 1010 hPa 0,0 l/m 0,0 km/h (0 Bft) SW 225 11,6 C 15,2 C 0,0 km/h (0 Bft)
22.09.2017 23:40 15,2 C 79 % 1010 hPa 0,0 l/m 0,0 km/h (0 Bft) W-SW 247 11,6 C 15,2 C 0,0 km/h (0 Bft)
22.09.2017 23:30 15,3 C 78 % 1011 hPa 0,0 l/m 0,4 km/h (0 Bft) SW 225 11,5 C 15,3 C 2,2 km/h (1 Bft)
22.09.2017 23:20 15,4 C 78 % 1011 hPa 0,0 l/m 0,7 km/h (0 Bft) W-SW 247 11,6 C 15,4 C 2,2 km/h (1 Bft)
22.09.2017 23:10 15,5 C 77 % 1011 hPa 0,0 l/m 2,5 km/h (1 Bft) SW 225 11,5 C 15,5 C 4,3 km/h (1 Bft)
22.09.2017 23:00 15,6 C 76 % 1011 hPa 0,0 l/m 0,7 km/h (0 Bft) SW 225 11,4 C 15,6 C 2,2 km/h (1 Bft)
22.09.2017 22:50 15,6 C 76 % 1011 hPa 0,0 l/m 3,6 km/h (1 Bft) W 270 11,4 C 15,6 C 4,3 km/h (1 Bft)
22.09.2017 22:40 15,7 C 75 % 1011 hPa 0,0 l/m 1,8 km/h (1 Bft) W-SW 247 11,3 C 15,7 C 2,2 km/h (1 Bft)
22.09.2017 22:30 15,8 C 75 % 1010 hPa 0,0 l/m 2,9 km/h (1 Bft) W-SW 247 11,4 C 15,8 C 4,3 km/h (1 Bft)
22.09.2017 22:20 15,8 C 74 % 1010 hPa 0,0 l/m 1,4 km/h (1 Bft) W-SW 247 11,2 C 15,8 C 2,2 km/h (1 Bft)
22.09.2017 22:10 15,9 C 73 % 1010 hPa 0,0 l/m 2,9 km/h (1 Bft) W 270 11,1 C 15,9 C 4,3 km/h (1 Bft)
22.09.2017 22:00 16,1 C 73 % 1010 hPa 0,0 l/m 0,7 km/h (0 Bft) W-SW 247 11,3 C 16,1 C 2,2 km/h (1 Bft)
22.09.2017 21:50 16,2 C 73 % 1010 hPa 0,0 l/m 0,7 km/h (0 Bft) W 270 11,4 C 16,2 C 2,2 km/h (1 Bft)
22.09.2017 21:40 16,2 C 73 % 1010 hPa 0,0 l/m 0,0 km/h (0 Bft) SW 225 11,4 C 16,2 C 0,0 km/h (0 Bft)
22.09.2017 21:30 16,3 C 72 % 1010 hPa 0,0 l/m 1,1 km/h (1 Bft) S 180 11,2 C 16,3 C 2,2 km/h (1 Bft)
22.09.2017 21:20 16,5 C 71 % 1010 hPa 0,0 l/m 1,8 km/h (1 Bft) SW 225 11,2 C 16,5 C 2,2 km/h (1 Bft)
22.09.2017 21:10 16,8 C 70 % 1010 hPa 0,0 l/m 1,4 km/h (1 Bft) SW 225 11,3 C 16,8 C 2,2 km/h (1 Bft)
22.09.2017 21:00 16,9 C 70 % 1010 hPa 0,0 l/m 0,0 km/h (0 Bft) SW 225 11,4 C 16,9 C 0,0 km/h (0 Bft)
22.09.2017 20:50 17,0 C 70 % 1010 hPa 0,0 l/m 0,0 km/h (0 Bft) SW 225 11,5 C 17,0 C 0,0 km/h (0 Bft)
22.09.2017 20:40 17,1 C 69 % 1010 hPa 0,0 l/m 0,0 km/h (0 Bft) SW 225 11,4 C 17,1 C 0,0 km/h (0 Bft)
22.09.2017 20:30 17,1 C 69 % 1010 hPa 0,0 l/m 0,0 km/h (0 Bft) SW 225 11,4 C 17,1 C 0,0 km/h (0 Bft)
22.09.2017 20:20 17,2 C 68 % 1010 hPa 0,0 l/m 0,0 km/h (0 Bft) S-SW 202 11,2 C 17,2 C 0,0 km/h (0 Bft)
22.09.2017 20:10 17,4 C 67 % 1009 hPa 0,0 l/m 0,0 km/h (0 Bft) SW 225 11,2 C 17,4 C 0,0 km/h (0 Bft)
22.09.2017 20:00 17,6 C 66 % 1009 hPa 0,0 l/m 0,0 km/h (0 Bft) W 270 11,2 C 17,6 C 0,0 km/h (0 Bft)
22.09.2017 19:50 17,9 C 66 % 1009 hPa 0,0 l/m 0,0 km/h (0 Bft) W-NW 292 11,5 C 17,9 C 0,0 km/h (0 Bft)
22.09.2017 19:40 18,0 C 65 % 1009 hPa 0,0 l/m 0,0 km/h (0 Bft) N-NW 337 11,3 C 18,0 C 0,0 km/h (0 Bft)
22.09.2017 19:30 18,2 C 65 % 1009 hPa 0,0 l/m 0,7 km/h (0 Bft) NO 45 11,5 C 18,2 C 2,2 km/h (1 Bft)
22.09.2017 19:20 18,5 C 65 % 1009 hPa 0,0 l/m 1,1 km/h (1 Bft) NW 315 11,8 C 18,5 C 2,2 km/h (1 Bft)
22.09.2017 19:10 18,7 C 64 % 1009 hPa 0,0 l/m 0,7 km/h (0 Bft) SO 135 11,7 C 18,7 C 2,2 km/h (1 Bft)
22.09.2017 19:00 19,4 C 64 % 1009 hPa 0,0 l/m 1,8 km/h (1 Bft) NW 315 12,4 C 19,4 C 2,2 km/h (1 Bft)
22.09.2017 18:50 19,6 C 62 % 1009 hPa 0,0 l/m 0,0 km/h (0 Bft) NW 315 12,1 C 19,6 C 0,0 km/h (0 Bft)
22.09.2017 18:40 19,7 C 62 % 1009 hPa 0,0 l/m 1,8 km/h (1 Bft) NO 45 12,2 C 19,7 C 4,3 km/h (1 Bft)
22.09.2017 18:30 19,8 C 61 % 1009 hPa 0,0 l/m 1,8 km/h (1 Bft) N 360 12,1 C 19,8 C 4,3 km/h (1 Bft)
22.09.2017 18:20 19,9 C 61 % 1009 hPa 0,0 l/m 1,4 km/h (1 Bft) N 360 12,2 C 19,9 C 2,2 km/h (1 Bft)
22.09.2017 18:10 20,1 C 60 % 1008 hPa 0,0 l/m 0,4 km/h (0 Bft) W-SW 247 12,1 C 20,1 C 2,2 km/h (1 Bft)
22.09.2017 18:00 20,5 C 59 % 1008 hPa 0,0 l/m 0,7 km/h (0 Bft) NW 315 12,2 C 20,5 C 2,2 km/h (1 Bft)
22.09.2017 17:50 20,9 C 58 % 1008 hPa 0,0 l/m 2,5 km/h (1 Bft) N-NW 337 12,3 C 20,9 C 4,3 km/h (1 Bft)
22.09.2017 17:40 21,4 C 57 % 1008 hPa 0,0 l/m 2,9 km/h (1 Bft) W-NW 292 12,5 C 21,4 C 4,3 km/h (1 Bft)
22.09.2017 17:30 21,4 C 57 % 1008 hPa 0,0 l/m 0,7 km/h (0 Bft) N-NW 337 12,5 C 21,4 C 2,2 km/h (1 Bft)
22.09.2017 17:20 21,5 C 57 % 1008 hPa 0,0 l/m 0,7 km/h (0 Bft) NW 315 12,6 C 21,5 C 2,2 km/h (1 Bft)
22.09.2017 17:10 21,5 C 56 % 1008 hPa 0,0 l/m 2,2 km/h (1 Bft) N 360 12,3 C 21,5 C 4,3 km/h (1 Bft)
22.09.2017 17:00 22,0 C 55 % 1008 hPa 0,0 l/m 0,0 km/h (0 Bft) N 360 12,5 C 22,0 C 2,2 km/h (1 Bft)
22.09.2017 16:50 22,3 C 55 % 1008 hPa 0,0 l/m 2,9 km/h (1 Bft) N-NW 337 12,8 C 22,3 C 4,3 km/h (1 Bft)
22.09.2017 16:40 22,4 C 55 % 1008 hPa 0,0 l/m 2,9 km/h (1 Bft) W-SW 247 12,9 C 22,4 C 4,3 km/h (1 Bft)
22.09.2017 16:30 22,2 C 55 % 1008 hPa 0,0 l/m 0,7 km/h (0 Bft) SW 225 12,7 C 22,2 C 2,2 km/h (1 Bft)
22.09.2017 16:20 21,7 C 57 % 1008 hPa 0,0 l/m 1,8 km/h (1 Bft) W 270 12,8 C 21,7 C 4,3 km/h (1 Bft)
22.09.2017 16:10 21,2 C 56 % 1008 hPa 0,0 l/m 0,4 km/h (0 Bft) W 270 12,1 C 21,2 C 2,2 km/h (1 Bft)
22.09.2017 16:00 21,2 C 57 % 1008 hPa 0,0 l/m 0,7 km/h (0 Bft) SO 135 12,3 C 21,2 C 2,2 km/h (1 Bft)
22.09.2017 15:50 20,7 C 57 % 1008 hPa 0,0 l/m 1,8 km/h (1 Bft) O-NO 67 11,9 C 20,7 C 2,2 km/h (1 Bft)
22.09.2017 15:40 20,4 C 57 % 1008 hPa 0,0 l/m 0,0 km/h (0 Bft) W-SW 247 11,6 C 20,4 C 2,2 km/h (1 Bft)
22.09.2017 15:30 20,3 C 57 % 1008 hPa 0,0 l/m 2,9 km/h (1 Bft) O-NO 67 11,5 C 20,3 C 4,3 km/h (1 Bft)
22.09.2017 15:20 20,6 C 56 % 1008 hPa 0,0 l/m 0,7 km/h (0 Bft) NO 45 11,5 C 20,6 C 2,2 km/h (1 Bft)
22.09.2017 15:10 20,7 C 56 % 1008 hPa 0,0 l/m 0,7 km/h (0 Bft) W 270 11,6 C 20,7 C 2,2 km/h (1 Bft)
22.09.2017 15:00 20,4 C 56 % 1008 hPa 0,0 l/m 0,7 km/h (0 Bft) N-NW 337 11,3 C 20,4 C 2,2 km/h (1 Bft)
_ Min-Zeit 07:50 16:30 15:00 - 15:40 - - 07:40 07:50 18:50
Minimum _ 12,1 C 55 % 1008 hPa - 0,0 km/h (0 Bft) - - 9,8 C 12,1 C 0,0 km/h (0 Bft)
_ Max-Zeit 16:40 08:50 08:10 15:00 11:00 - - 11:50 16:40 09:00
Maximum _ 22,4 C 88 % 1012 hPa 0,0 l/m 4,0 km/h
N (1 Bft)
- - 13,8 C 22,4 C 6,5 km/h
N-NW (2 Bft)
Durchschnitt _ 16,6 C 74 % 1010 hPa #0,0 l/m 1,2 km/h (1 Bft) W-SW - 11,7 C 16,6 C 2,5 km/h (1 Bft)
www.klaudt.eu